sensor_id;sensor_type;location;lat;lon;timestamp;pressure;altitude;pressure_sealevel;temperature
41940;BMP180;23057;48.554;14.454;2022-09-01T00:00:49;94093.00;;;21.30
41940;BMP180;23057;48.554;14.454;2022-09-01T00:03:20;94099.00;;;21.30
41940;BMP180;23057;48.554;14.454;2022-09-01T00:05:54;94101.00;;;21.30
41940;BMP180;23057;48.554;14.454;2022-09-01T00:08:26;94089.00;;;21.20
41940;BMP180;23057;48.554;14.454;2022-09-01T00:10:57;94094.00;;;21.20
41940;BMP180;23057;48.554;14.454;2022-09-01T00:13:28;94093.00;;;21.20
41940;BMP180;23057;48.554;14.454;2022-09-01T00:16:02;94088.00;;;21.30
41940;BMP180;23057;48.554;14.454;2022-09-01T00:18:33;94098.00;;;21.20
41940;BMP180;23057;48.554;14.454;2022-09-01T00:21:05;94100.00;;;21.20
41940;BMP180;23057;48.554;14.454;2022-09-01T00:23:36;94089.00;;;21.20
41940;BMP180;23057;48.554;14.454;2022-09-01T00:26:07;94093.00;;;21.20
41940;BMP180;23057;48.554;14.454;2022-09-01T00:28:39;94088.00;;;21.10
41940;BMP180;23057;48.554;14.454;2022-09-01T00:31:10;94097.00;;;21.10
41940;BMP180;23057;48.554;14.454;2022-09-01T00:33:42;94097.00;;;21.10
41940;BMP180;23057;48.554;14.454;2022-09-01T00:36:13;94098.00;;;21.10
41940;BMP180;23057;48.554;14.454;2022-09-01T00:38:45;94099.00;;;21.00
41940;BMP180;23057;48.554;14.454;2022-09-01T00:41:21;94098.00;;;21.00
41940;BMP180;23057;48.554;14.454;2022-09-01T00:43:57;94100.00;;;20.90
41940;BMP180;23057;48.554;14.454;2022-09-01T00:46:40;94095.00;;;20.90
41940;BMP180;23057;48.554;14.454;2022-09-01T00:51:53;94091.00;;;20.80
41940;BMP180;23057;48.554;14.454;2022-09-01T00:54:32;94091.00;;;20.80
41940;BMP180;23057;48.554;14.454;2022-09-01T00:57:07;94093.00;;;20.80
41940;BMP180;23057;48.554;14.454;2022-09-01T00:59:45;94091.00;;;20.80
41940;BMP180;23057;48.554;14.454;2022-09-01T01:02:19;94085.00;;;20.80
41940;BMP180;23057;48.554;14.454;2022-09-01T01:04:50;94087.00;;;20.80
41940;BMP180;23057;48.554;14.454;2022-09-01T01:07:22;94088.00;;;20.80
41940;BMP180;23057;48.554;14.454;2022-09-01T01:09:54;94093.00;;;20.80
41940;BMP180;23057;48.554;14.454;2022-09-01T01:12:25;94094.00;;;20.80
41940;BMP180;23057;48.554;14.454;2022-09-01T01:14:57;94092.00;;;20.80
41940;BMP180;23057;48.554;14.454;2022-09-01T01:17:28;94098.00;;;20.70
41940;BMP180;23057;48.554;14.454;2022-09-01T01:19:59;94092.00;;;20.70
41940;BMP180;23057;48.554;14.454;2022-09-01T01:25:47;94095.00;;;20.60
41940;BMP180;23057;48.554;14.454;2022-09-01T01:28:32;94089.00;;;20.60
41940;BMP180;23057;48.554;14.454;2022-09-01T01:31:13;94094.00;;;20.60
41940;BMP180;23057;48.554;14.454;2022-09-01T01:33:51;94088.00;;;20.60
41940;BMP180;23057;48.554;14.454;2022-09-01T01:36:31;94085.00;;;20.60
41940;BMP180;23057;48.554;14.454;2022-09-01T01:39:15;94076.00;;;20.50
41940;BMP180;23057;48.554;14.454;2022-09-01T01:41:55;94078.00;;;20.50
41940;BMP180;23057;48.554;14.454;2022-09-01T01:44:28;94083.00;;;20.40
41940;BMP180;23057;48.554;14.454;2022-09-01T01:46:58;94083.00;;;20.40
41940;BMP180;23057;48.554;14.454;2022-09-01T01:49:34;94086.00;;;20.40
41940;BMP180;23057;48.554;14.454;2022-09-01T01:52:05;94078.00;;;20.40
41940;BMP180;23057;48.554;14.454;2022-09-01T01:54:36;94082.00;;;20.40
41940;BMP180;23057;48.554;14.454;2022-09-01T01:57:08;94076.00;;;20.30
41940;BMP180;23057;48.554;14.454;2022-09-01T01:59:38;94076.00;;;20.20
41940;BMP180;23057;48.554;14.454;2022-09-01T02:02:10;94068.00;;;20.20
41940;BMP180;23057;48.554;14.454;2022-09-01T02:04:42;94067.00;;;20.10
41940;BMP180;23057;48.554;14.454;2022-09-01T02:07:13;94063.00;;;20.00
41940;BMP180;23057;48.554;14.454;2022-09-01T02:09:44;94072.00;;;20.00
41940;BMP180;23057;48.554;14.454;2022-09-01T02:12:17;94070.00;;;19.90
41940;BMP180;23057;48.554;14.454;2022-09-01T02:14:48;94074.00;;;19.90
41940;BMP180;23057;48.554;14.454;2022-09-01T02:17:20;94077.00;;;19.80
41940;BMP180;23057;48.554;14.454;2022-09-01T02:19:51;94073.00;;;19.80
41940;BMP180;23057;48.554;14.454;2022-09-01T02:22:26;94071.00;;;19.80
41940;BMP180;23057;48.554;14.454;2022-09-01T02:24:57;94076.00;;;19.80
41940;BMP180;23057;48.554;14.454;2022-09-01T02:27:31;94066.00;;;19.70
41940;BMP180;23057;48.554;14.454;2022-09-01T02:30:06;94073.00;;;19.70
41940;BMP180;23057;48.554;14.454;2022-09-01T02:32:40;94066.00;;;19.70
41940;BMP180;23057;48.554;14.454;2022-09-01T02:35:11;94068.00;;;19.70
41940;BMP180;23057;48.554;14.454;2022-09-01T02:37:42;94068.00;;;19.60
41940;BMP180;23057;48.554;14.454;2022-09-01T02:40:18;94069.00;;;19.70
41940;BMP180;23057;48.554;14.454;2022-09-01T02:42:49;94067.00;;;19.60
41940;BMP180;23057;48.554;14.454;2022-09-01T02:45:22;94063.00;;;19.60
41940;BMP180;23057;48.554;14.454;2022-09-01T02:47:55;94053.00;;;19.50
41940;BMP180;23057;48.554;14.454;2022-09-01T02:50:26;94071.00;;;19.50
41940;BMP180;23057;48.554;14.454;2022-09-01T02:52:58;94063.00;;;19.50
41940;BMP180;23057;48.554;14.454;2022-09-01T02:55:31;94060.00;;;19.50
41940;BMP180;23057;48.554;14.454;2022-09-01T02:58:02;94065.00;;;19.50
41940;BMP180;23057;48.554;14.454;2022-09-01T03:00:33;94066.00;;;19.50
41940;BMP180;23057;48.554;14.454;2022-09-01T03:03:09;94070.00;;;19.50
41940;BMP180;23057;48.554;14.454;2022-09-01T03:05:42;94069.00;;;19.40
41940;BMP180;23057;48.554;14.454;2022-09-01T03:08:13;94070.00;;;19.40
41940;BMP180;23057;48.554;14.454;2022-09-01T03:10:45;94079.00;;;19.40
41940;BMP180;23057;48.554;14.454;2022-09-01T03:13:20;94074.00;;;19.30
41940;BMP180;23057;48.554;14.454;2022-09-01T03:15:53;94073.00;;;19.30
41940;BMP180;23057;48.554;14.454;2022-09-01T03:18:23;94064.00;;;19.20
41940;BMP180;23057;48.554;14.454;2022-09-01T03:20:54;94071.00;;;19.20
41940;BMP180;23057;48.554;14.454;2022-09-01T03:23:25;94056.00;;;19.20
41940;BMP180;23057;48.554;14.454;2022-09-01T03:25:57;94057.00;;;19.20
41940;BMP180;23057;48.554;14.454;2022-09-01T03:28:28;94056.00;;;19.10
41940;BMP180;23057;48.554;14.454;2022-09-01T03:30:59;94062.00;;;19.10
41940;BMP180;23057;48.554;14.454;2022-09-01T03:33:30;94056.00;;;19.10
41940;BMP180;23057;48.554;14.454;2022-09-01T03:36:03;94065.00;;;19.10
41940;BMP180;23057;48.554;14.454;2022-09-01T03:38:34;94060.00;;;19.10
41940;BMP180;23057;48.554;14.454;2022-09-01T03:41:05;94059.00;;;19.00
41940;BMP180;23057;48.554;14.454;2022-09-01T03:43:36;94068.00;;;19.00
41940;BMP180;23057;48.554;14.454;2022-09-01T03:46:07;94061.00;;;18.90
41940;BMP180;23057;48.554;14.454;2022-09-01T03:48:39;94066.00;;;18.80
41940;BMP180;23057;48.554;14.454;2022-09-01T03:51:10;94072.00;;;18.70
41940;BMP180;23057;48.554;14.454;2022-09-01T03:53:44;94068.00;;;18.70
41940;BMP180;23057;48.554;14.454;2022-09-01T03:56:16;94069.00;;;18.60
41940;BMP180;23057;48.554;14.454;2022-09-01T03:58:47;94071.00;;;18.60
41940;BMP180;23057;48.554;14.454;2022-09-01T04:01:18;94072.00;;;18.50
41940;BMP180;23057;48.554;14.454;2022-09-01T04:03:49;94062.00;;;18.50
41940;BMP180;23057;48.554;14.454;2022-09-01T04:06:22;94074.00;;;18.50
41940;BMP180;23057;48.554;14.454;2022-09-01T04:08:53;94066.00;;;18.50
41940;BMP180;23057;48.554;14.454;2022-09-01T04:11:31;94066.00;;;18.50
41940;BMP180;23057;48.554;14.454;2022-09-01T04:14:03;94060.00;;;18.40
41940;BMP180;23057;48.554;14.454;2022-09-01T04:16:34;94061.00;;;18.40
41940;BMP180;23057;48.554;14.454;2022-09-01T04:19:25;94067.00;;;18.40
41940;BMP180;23057;48.554;14.454;2022-09-01T04:21:58;94062.00;;;18.40
41940;BMP180;23057;48.554;14.454;2022-09-01T04:24:31;94067.00;;;18.40
41940;BMP180;23057;48.554;14.454;2022-09-01T04:27:03;94056.00;;;18.40
41940;BMP180;23057;48.554;14.454;2022-09-01T04:29:34;94056.00;;;18.50
41940;BMP180;23057;48.554;14.454;2022-09-01T04:32:08;94060.00;;;18.40
41940;BMP180;23057;48.554;14.454;2022-09-01T04:34:41;94058.00;;;18.40
41940;BMP180;23057;48.554;14.454;2022-09-01T04:37:17;94059.00;;;18.40
41940;BMP180;23057;48.554;14.454;2022-09-01T04:39:52;94062.00;;;18.30
41940;BMP180;23057;48.554;14.454;2022-09-01T04:42:26;94057.00;;;18.30
41940;BMP180;23057;48.554;14.454;2022-09-01T04:44:58;94060.00;;;18.30
41940;BMP180;23057;48.554;14.454;2022-09-01T04:47:31;94060.00;;;18.20
41940;BMP180;23057;48.554;14.454;2022-09-01T04:50:03;94064.00;;;18.20
41940;BMP180;23057;48.554;14.454;2022-09-01T04:52:44;94066.00;;;18.20
41940;BMP180;23057;48.554;14.454;2022-09-01T04:55:17;94053.00;;;18.20
41940;BMP180;23057;48.554;14.454;2022-09-01T04:57:48;94068.00;;;18.20
41940;BMP180;23057;48.554;14.454;2022-09-01T05:00:20;94062.00;;;18.20
41940;BMP180;23057;48.554;14.454;2022-09-01T05:02:58;94064.00;;;18.30
41940;BMP180;23057;48.554;14.454;2022-09-01T05:05:41;94067.00;;;18.30
41940;BMP180;23057;48.554;14.454;2022-09-01T05:08:16;94070.00;;;18.30
41940;BMP180;23057;48.554;14.454;2022-09-01T05:10:51;94074.00;;;18.40
41940;BMP180;23057;48.554;14.454;2022-09-01T05:13:24;94071.00;;;18.50
41940;BMP180;23057;48.554;14.454;2022-09-01T05:16:06;94084.00;;;18.50
41940;BMP180;23057;48.554;14.454;2022-09-01T05:18:44;94073.00;;;18.50
41940;BMP180;23057;48.554;14.454;2022-09-01T05:21:19;94076.00;;;18.60
41940;BMP180;23057;48.554;14.454;2022-09-01T05:23:56;94085.00;;;18.60
41940;BMP180;23057;48.554;14.454;2022-09-01T05:26:31;94082.00;;;18.60
41940;BMP180;23057;48.554;14.454;2022-09-01T05:29:04;94083.00;;;18.70
41940;BMP180;23057;48.554;14.454;2022-09-01T05:31:45;94080.00;;;18.70
41940;BMP180;23057;48.554;14.454;2022-09-01T05:34:17;94076.00;;;18.60
41940;BMP180;23057;48.554;14.454;2022-09-01T05:36:54;94082.00;;;18.60
41940;BMP180;23057;48.554;14.454;2022-09-01T05:39:27;94074.00;;;18.60
41940;BMP180;23057;48.554;14.454;2022-09-01T05:41:58;94076.00;;;18.60
41940;BMP180;23057;48.554;14.454;2022-09-01T05:44:30;94081.00;;;18.60
41940;BMP180;23057;48.554;14.454;2022-09-01T05:47:01;94068.00;;;18.50
41940;BMP180;23057;48.554;14.454;2022-09-01T05:49:34;94081.00;;;18.50
41940;BMP180;23057;48.554;14.454;2022-09-01T05:52:05;94077.00;;;18.50
41940;BMP180;23057;48.554;14.454;2022-09-01T05:54:38;94068.00;;;18.60
41940;BMP180;23057;48.554;14.454;2022-09-01T05:57:10;94068.00;;;18.60
41940;BMP180;23057;48.554;14.454;2022-09-01T05:59:42;94074.00;;;18.70
41940;BMP180;23057;48.554;14.454;2022-09-01T06:02:12;94075.00;;;18.70
41940;BMP180;23057;48.554;14.454;2022-09-01T06:04:44;94072.00;;;18.70
41940;BMP180;23057;48.554;14.454;2022-09-01T06:07:15;94074.00;;;18.80
41940;BMP180;23057;48.554;14.454;2022-09-01T06:09:48;94082.00;;;18.90
41940;BMP180;23057;48.554;14.454;2022-09-01T06:12:19;94083.00;;;18.90
41940;BMP180;23057;48.554;14.454;2022-09-01T06:14:53;94084.00;;;18.90
41940;BMP180;23057;48.554;14.454;2022-09-01T06:17:26;94083.00;;;19.00
41940;BMP180;23057;48.554;14.454;2022-09-01T06:19:59;94080.00;;;18.90
41940;BMP180;23057;48.554;14.454;2022-09-01T06:22:30;94076.00;;;19.00
41940;BMP180;23057;48.554;14.454;2022-09-01T06:25:01;94081.00;;;19.00
41940;BMP180;23057;48.554;14.454;2022-09-01T06:27:36;94076.00;;;19.10
41940;BMP180;23057;48.554;14.454;2022-09-01T06:30:16;94080.00;;;19.20
41940;BMP180;23057;48.554;14.454;2022-09-01T06:32:50;94075.00;;;19.30
41940;BMP180;23057;48.554;14.454;2022-09-01T06:35:22;94082.00;;;19.40
41940;BMP180;23057;48.554;14.454;2022-09-01T06:37:58;94082.00;;;19.50
41940;BMP180;23057;48.554;14.454;2022-09-01T06:40:32;94083.00;;;19.50
41940;BMP180;23057;48.554;14.454;2022-09-01T06:43:04;94075.00;;;19.60
41940;BMP180;23057;48.554;14.454;2022-09-01T06:45:41;94082.00;;;19.60
41940;BMP180;23057;48.554;14.454;2022-09-01T06:48:13;94085.00;;;19.70
41940;BMP180;23057;48.554;14.454;2022-09-01T06:50:45;94088.00;;;19.80
41940;BMP180;23057;48.554;14.454;2022-09-01T06:53:16;94090.00;;;19.90
41940;BMP180;23057;48.554;14.454;2022-09-01T06:55:48;94081.00;;;19.90
41940;BMP180;23057;48.554;14.454;2022-09-01T06:58:19;94094.00;;;19.90
41940;BMP180;23057;48.554;14.454;2022-09-01T07:00:50;94092.00;;;20.00
41940;BMP180;23057;48.554;14.454;2022-09-01T07:03:21;94102.00;;;20.00
41940;BMP180;23057;48.554;14.454;2022-09-01T07:05:53;94100.00;;;20.00
41940;BMP180;23057;48.554;14.454;2022-09-01T07:08:25;94099.00;;;20.10
41940;BMP180;23057;48.554;14.454;2022-09-01T07:10:55;94104.00;;;20.10
41940;BMP180;23057;48.554;14.454;2022-09-01T07:13:28;94093.00;;;20.20
41940;BMP180;23057;48.554;14.454;2022-09-01T07:16:00;94095.00;;;20.20
41940;BMP180;23057;48.554;14.454;2022-09-01T07:18:34;94100.00;;;20.40
41940;BMP180;23057;48.554;14.454;2022-09-01T07:21:06;94102.00;;;20.50
41940;BMP180;23057;48.554;14.454;2022-09-01T07:23:37;94099.00;;;20.60
41940;BMP180;23057;48.554;14.454;2022-09-01T07:26:09;94097.00;;;20.70
41940;BMP180;23057;48.554;14.454;2022-09-01T07:28:40;94096.00;;;20.80
41940;BMP180;23057;48.554;14.454;2022-09-01T07:31:20;94097.00;;;20.90
41940;BMP180;23057;48.554;14.454;2022-09-01T07:33:56;94102.00;;;21.00
41940;BMP180;23057;48.554;14.454;2022-09-01T07:36:30;94104.00;;;21.10
41940;BMP180;23057;48.554;14.454;2022-09-01T07:39:03;94105.00;;;21.20
41940;BMP180;23057;48.554;14.454;2022-09-01T07:41:34;94102.00;;;21.30
41940;BMP180;23057;48.554;14.454;2022-09-01T07:44:05;94107.00;;;21.50
41940;BMP180;23057;48.554;14.454;2022-09-01T07:46:38;94097.00;;;21.70
41940;BMP180;23057;48.554;14.454;2022-09-01T07:49:10;94107.00;;;21.90
41940;BMP180;23057;48.554;14.454;2022-09-01T07:51:41;94099.00;;;22.00
41940;BMP180;23057;48.554;14.454;2022-09-01T07:54:13;94107.00;;;22.10
41940;BMP180;23057;48.554;14.454;2022-09-01T07:56:44;94102.00;;;22.20
41940;BMP180;23057;48.554;14.454;2022-09-01T07:59:15;94111.00;;;22.30
41940;BMP180;23057;48.554;14.454;2022-09-01T08:01:45;94115.00;;;22.40
41940;BMP180;23057;48.554;14.454;2022-09-01T08:04:16;94113.00;;;22.50
41940;BMP180;23057;48.554;14.454;2022-09-01T08:06:52;94115.00;;;22.70
41940;BMP180;23057;48.554;14.454;2022-09-01T08:09:25;94117.00;;;22.90
41940;BMP180;23057;48.554;14.454;2022-09-01T08:11:57;94122.00;;;23.00
41940;BMP180;23057;48.554;14.454;2022-09-01T08:14:27;94117.00;;;23.10
41940;BMP180;23057;48.554;14.454;2022-09-01T08:16:58;94116.00;;;23.30
41940;BMP180;23057;48.554;14.454;2022-09-01T08:19:29;94119.00;;;23.40
41940;BMP180;23057;48.554;14.454;2022-09-01T08:22:01;94123.00;;;23.50
41940;BMP180;23057;48.554;14.454;2022-09-01T08:24:31;94121.00;;;23.50
41940;BMP180;23057;48.554;14.454;2022-09-01T08:27:02;94125.00;;;23.50
41940;BMP180;23057;48.554;14.454;2022-09-01T08:29:33;94128.00;;;23.50
41940;BMP180;23057;48.554;14.454;2022-09-01T08:32:04;94125.00;;;23.50
41940;BMP180;23057;48.554;14.454;2022-09-01T08:34:36;94123.00;;;23.50
41940;BMP180;23057;48.554;14.454;2022-09-01T08:37:07;94127.00;;;23.60
41940;BMP180;23057;48.554;14.454;2022-09-01T08:39:38;94131.00;;;23.60
41940;BMP180;23057;48.554;14.454;2022-09-01T08:42:43;94125.00;;;23.60
41940;BMP180;23057;48.554;14.454;2022-09-01T08:45:50;94133.00;;;23.50
41940;BMP180;23057;48.554;14.454;2022-09-01T08:48:33;94129.00;;;23.40
41940;BMP180;23057;48.554;14.454;2022-09-01T08:57:16;94144.00;;;23.30
41940;BMP180;23057;48.554;14.454;2022-09-01T08:59:55;94139.00;;;23.40
41940;BMP180;23057;48.554;14.454;2022-09-01T09:02:50;94151.00;;;23.40
41940;BMP180;23057;48.554;14.454;2022-09-01T09:05:53;94148.00;;;23.40
41940;BMP180;23057;48.554;14.454;2022-09-01T09:08:58;94141.00;;;23.40
41940;BMP180;23057;48.554;14.454;2022-09-01T09:17:35;94136.00;;;23.60
41940;BMP180;23057;48.554;14.454;2022-09-01T09:20:12;94131.00;;;23.60
41940;BMP180;23057;48.554;14.454;2022-09-01T09:22:46;94128.00;;;23.70
41940;BMP180;23057;48.554;14.454;2022-09-01T09:25:18;94124.00;;;23.80
41940;BMP180;23057;48.554;14.454;2022-09-01T09:27:50;94137.00;;;23.90
41940;BMP180;23057;48.554;14.454;2022-09-01T09:30:27;94136.00;;;23.80
41940;BMP180;23057;48.554;14.454;2022-09-01T09:33:05;94132.00;;;23.80
41940;BMP180;23057;48.554;14.454;2022-09-01T09:35:42;94121.00;;;23.80
41940;BMP180;23057;48.554;14.454;2022-09-01T09:38:23;94131.00;;;23.90
41940;BMP180;23057;48.554;14.454;2022-09-01T09:41:15;94135.00;;;23.90
41940;BMP180;23057;48.554;14.454;2022-09-01T09:46:37;94133.00;;;24.00
41940;BMP180;23057;48.554;14.454;2022-09-01T09:49:19;94123.00;;;24.00
41940;BMP180;23057;48.554;14.454;2022-09-01T09:52:13;94120.00;;;24.10
41940;BMP180;23057;48.554;14.454;2022-09-01T09:55:02;94124.00;;;24.20
41940;BMP180;23057;48.554;14.454;2022-09-01T09:57:38;94118.00;;;24.30
41940;BMP180;23057;48.554;14.454;2022-09-01T10:02:58;94126.00;;;24.50
41940;BMP180;23057;48.554;14.454;2022-09-01T10:08:43;94109.00;;;24.70
41940;BMP180;23057;48.554;14.454;2022-09-01T10:14:00;94112.00;;;24.90
41940;BMP180;23057;48.554;14.454;2022-09-01T10:16:36;94112.00;;;25.00
41940;BMP180;23057;48.554;14.454;2022-09-01T10:19:11;94116.00;;;25.10
41940;BMP180;23057;48.554;14.454;2022-09-01T10:21:45;94112.00;;;25.30
41940;BMP180;23057;48.554;14.454;2022-09-01T10:24:33;94111.00;;;25.50
41940;BMP180;23057;48.554;14.454;2022-09-01T10:27:10;94115.00;;;25.60
41940;BMP180;23057;48.554;14.454;2022-09-01T10:30:02;94121.00;;;25.60
41940;BMP180;23057;48.554;14.454;2022-09-01T10:32:54;94123.00;;;25.60
41940;BMP180;23057;48.554;14.454;2022-09-01T10:35:39;94113.00;;;25.60
41940;BMP180;23057;48.554;14.454;2022-09-01T10:38:18;94115.00;;;25.50
41940;BMP180;23057;48.554;14.454;2022-09-01T10:40:54;94113.00;;;25.50
41940;BMP180;23057;48.554;14.454;2022-09-01T10:43:40;94121.00;;;25.40
41940;BMP180;23057;48.554;14.454;2022-09-01T10:48:55;94111.00;;;25.30
41940;BMP180;23057;48.554;14.454;2022-09-01T10:53:59;94110.00;;;25.20
41940;BMP180;23057;48.554;14.454;2022-09-01T10:56:40;94115.00;;;25.20
41940;BMP180;23057;48.554;14.454;2022-09-01T11:10:13;94113.00;;;24.50
41940;BMP180;23057;48.554;14.454;2022-09-01T11:13:26;94108.00;;;24.30
41940;BMP180;23057;48.554;14.454;2022-09-01T11:22:08;94115.00;;;23.80
41940;BMP180;23057;48.554;14.454;2022-09-01T11:24:48;94119.00;;;23.70
41940;BMP180;23057;48.554;14.454;2022-09-01T11:38:58;94126.00;;;23.50
41940;BMP180;23057;48.554;14.454;2022-09-01T11:44:28;94132.00;;;23.30
41940;BMP180;23057;48.554;14.454;2022-09-01T11:47:27;94131.00;;;23.20
41940;BMP180;23057;48.554;14.454;2022-09-01T11:50:34;94126.00;;;23.20
41940;BMP180;23057;48.554;14.454;2022-09-01T11:53:20;94125.00;;;23.10
41940;BMP180;23057;48.554;14.454;2022-09-01T11:55:55;94127.00;;;23.10
41940;BMP180;23057;48.554;14.454;2022-09-01T11:58:41;94123.00;;;23.10
41940;BMP180;23057;48.554;14.454;2022-09-01T12:01:20;94127.00;;;23.10
41940;BMP180;23057;48.554;14.454;2022-09-01T12:04:22;94126.00;;;23.00
41940;BMP180;23057;48.554;14.454;2022-09-01T12:07:03;94129.00;;;23.00
41940;BMP180;23057;48.554;14.454;2022-09-01T12:09:40;94123.00;;;23.00
41940;BMP180;23057;48.554;14.454;2022-09-01T12:12:34;94118.00;;;22.90
41940;BMP180;23057;48.554;14.454;2022-09-01T12:15:18;94122.00;;;22.90
41940;BMP180;23057;48.554;14.454;2022-09-01T12:17:52;94118.00;;;22.90
41940;BMP180;23057;48.554;14.454;2022-09-01T12:20:45;94122.00;;;22.90
41940;BMP180;23057;48.554;14.454;2022-09-01T12:23:36;94120.00;;;22.90
41940;BMP180;23057;48.554;14.454;2022-09-01T12:26:23;94120.00;;;22.90
41940;BMP180;23057;48.554;14.454;2022-09-01T12:28:58;94126.00;;;23.00
41940;BMP180;23057;48.554;14.454;2022-09-01T12:31:29;94120.00;;;23.00
41940;BMP180;23057;48.554;14.454;2022-09-01T12:34:00;94125.00;;;23.10
41940;BMP180;23057;48.554;14.454;2022-09-01T12:36:35;94120.00;;;23.20
41940;BMP180;23057;48.554;14.454;2022-09-01T12:39:23;94116.00;;;23.30
41940;BMP180;23057;48.554;14.454;2022-09-01T12:42:21;94125.00;;;23.40
41940;BMP180;23057;48.554;14.454;2022-09-01T12:45:03;94125.00;;;23.40
41940;BMP180;23057;48.554;14.454;2022-09-01T12:52:53;94124.00;;;23.40
41940;BMP180;23057;48.554;14.454;2022-09-01T12:55:34;94127.00;;;23.40
41940;BMP180;23057;48.554;14.454;2022-09-01T12:58:07;94124.00;;;23.50
41940;BMP180;23057;48.554;14.454;2022-09-01T13:03:28;94121.00;;;23.50
41940;BMP180;23057;48.554;14.454;2022-09-01T13:06:02;94124.00;;;23.60
41940;BMP180;23057;48.554;14.454;2022-09-01T13:08:34;94116.00;;;23.60
41940;BMP180;23057;48.554;14.454;2022-09-01T13:11:13;94122.00;;;23.60
41940;BMP180;23057;48.554;14.454;2022-09-01T13:13:47;94125.00;;;23.60
41940;BMP180;23057;48.554;14.454;2022-09-01T13:16:18;94124.00;;;23.70
41940;BMP180;23057;48.554;14.454;2022-09-01T13:18:49;94117.00;;;23.80
41940;BMP180;23057;48.554;14.454;2022-09-01T13:21:19;94121.00;;;23.80
41940;BMP180;23057;48.554;14.454;2022-09-01T13:23:51;94118.00;;;23.80
41940;BMP180;23057;48.554;14.454;2022-09-01T13:26:21;94124.00;;;23.90
41940;BMP180;23057;48.554;14.454;2022-09-01T13:28:53;94110.00;;;23.80
41940;BMP180;23057;48.554;14.454;2022-09-01T13:31:24;94115.00;;;23.80
41940;BMP180;23057;48.554;14.454;2022-09-01T13:33:55;94120.00;;;23.80
41940;BMP180;23057;48.554;14.454;2022-09-01T13:36:26;94112.00;;;23.80
41940;BMP180;23057;48.554;14.454;2022-09-01T13:38:57;94123.00;;;23.80
41940;BMP180;23057;48.554;14.454;2022-09-01T13:41:28;94109.00;;;23.80
41940;BMP180;23057;48.554;14.454;2022-09-01T13:44:01;94116.00;;;23.80
41940;BMP180;23057;48.554;14.454;2022-09-01T13:46:31;94117.00;;;23.80
41940;BMP180;23057;48.554;14.454;2022-09-01T13:49:02;94110.00;;;23.80
41940;BMP180;23057;48.554;14.454;2022-09-01T13:51:33;94113.00;;;23.70
41940;BMP180;23057;48.554;14.454;2022-09-01T13:54:06;94119.00;;;23.70
41940;BMP180;23057;48.554;14.454;2022-09-01T13:56:37;94118.00;;;23.60
41940;BMP180;23057;48.554;14.454;2022-09-01T13:59:09;94121.00;;;23.60
41940;BMP180;23057;48.554;14.454;2022-09-01T14:01:40;94122.00;;;23.60
41940;BMP180;23057;48.554;14.454;2022-09-01T14:04:12;94121.00;;;23.60
41940;BMP180;23057;48.554;14.454;2022-09-01T14:06:43;94113.00;;;23.60
41940;BMP180;23057;48.554;14.454;2022-09-01T14:09:15;94116.00;;;23.60
41940;BMP180;23057;48.554;14.454;2022-09-01T14:11:46;94116.00;;;23.70
41940;BMP180;23057;48.554;14.454;2022-09-01T14:14:16;94121.00;;;23.70
41940;BMP180;23057;48.554;14.454;2022-09-01T14:16:48;94127.00;;;23.80
41940;BMP180;23057;48.554;14.454;2022-09-01T14:19:19;94127.00;;;23.80
41940;BMP180;23057;48.554;14.454;2022-09-01T14:21:49;94122.00;;;23.80
41940;BMP180;23057;48.554;14.454;2022-09-01T14:24:21;94123.00;;;23.80
41940;BMP180;23057;48.554;14.454;2022-09-01T14:26:52;94124.00;;;23.70
41940;BMP180;23057;48.554;14.454;2022-09-01T14:29:23;94119.00;;;23.70
41940;BMP180;23057;48.554;14.454;2022-09-01T14:31:54;94122.00;;;23.70
41940;BMP180;23057;48.554;14.454;2022-09-01T14:34:26;94118.00;;;23.60
41940;BMP180;23057;48.554;14.454;2022-09-01T14:36:57;94122.00;;;23.60
41940;BMP180;23057;48.554;14.454;2022-09-01T14:39:28;94117.00;;;23.60
41940;BMP180;23057;48.554;14.454;2022-09-01T14:42:00;94118.00;;;23.60
41940;BMP180;23057;48.554;14.454;2022-09-01T14:44:31;94118.00;;;23.50
41940;BMP180;23057;48.554;14.454;2022-09-01T14:47:04;94116.00;;;23.50
41940;BMP180;23057;48.554;14.454;2022-09-01T14:49:35;94114.00;;;23.50
41940;BMP180;23057;48.554;14.454;2022-09-01T14:52:06;94115.00;;;23.50
41940;BMP180;23057;48.554;14.454;2022-09-01T14:54:39;94108.00;;;23.50
41940;BMP180;23057;48.554;14.454;2022-09-01T14:57:12;94108.00;;;23.50
41940;BMP180;23057;48.554;14.454;2022-09-01T14:59:43;94104.00;;;23.50
41940;BMP180;23057;48.554;14.454;2022-09-01T15:02:14;94102.00;;;23.50
41940;BMP180;23057;48.554;14.454;2022-09-01T15:04:45;94103.00;;;23.50
41940;BMP180;23057;48.554;14.454;2022-09-01T15:07:16;94100.00;;;23.50
41940;BMP180;23057;48.554;14.454;2022-09-01T15:09:47;94098.00;;;23.50
41940;BMP180;23057;48.554;14.454;2022-09-01T15:12:18;94099.00;;;23.50
41940;BMP180;23057;48.554;14.454;2022-09-01T15:14:49;94107.00;;;23.50
41940;BMP180;23057;48.554;14.454;2022-09-01T15:17:20;94106.00;;;23.50
41940;BMP180;23057;48.554;14.454;2022-09-01T15:19:51;94103.00;;;23.50
41940;BMP180;23057;48.554;14.454;2022-09-01T15:22:22;94104.00;;;23.50
41940;BMP180;23057;48.554;14.454;2022-09-01T15:24:53;94097.00;;;23.60
41940;BMP180;23057;48.554;14.454;2022-09-01T15:27:24;94091.00;;;23.60
41940;BMP180;23057;48.554;14.454;2022-09-01T15:29:54;94099.00;;;23.60
41940;BMP180;23057;48.554;14.454;2022-09-01T15:32:25;94100.00;;;23.60
41940;BMP180;23057;48.554;14.454;2022-09-01T15:34:56;94092.00;;;23.60
41940;BMP180;23057;48.554;14.454;2022-09-01T15:37:27;94100.00;;;23.60
41940;BMP180;23057;48.554;14.454;2022-09-01T15:39:58;94097.00;;;23.60
41940;BMP180;23057;48.554;14.454;2022-09-01T15:42:29;94095.00;;;23.60
41940;BMP180;23057;48.554;14.454;2022-09-01T15:45:06;94098.00;;;23.60
41940;BMP180;23057;48.554;14.454;2022-09-01T15:47:39;94096.00;;;23.60
41940;BMP180;23057;48.554;14.454;2022-09-01T15:50:12;94095.00;;;23.60
41940;BMP180;23057;48.554;14.454;2022-09-01T15:52:59;94105.00;;;23.70